sensor_id;sensor_type;location;lat;lon;timestamp;P1;durP1;ratioP1;P2;durP2;ratioP2
10637;SDS011;47007;49.252;8.904;2023-04-15T00:00:16;4.00;;;1.80;;
10637;SDS011;47007;49.252;8.904;2023-04-15T00:01:00;1.85;;;1.70;;
10637;SDS011;47007;49.252;8.904;2023-04-15T00:01:41;1.75;;;1.65;;
10637;SDS011;47007;49.252;8.904;2023-04-15T00:02:23;1.95;;;1.85;;
10637;SDS011;47007;49.252;8.904;2023-04-15T00:03:05;2.58;;;2.38;;
10637;SDS011;47007;49.252;8.904;2023-04-15T00:03:49;3.13;;;2.38;;
10637;SDS011;47007;49.252;8.904;2023-04-15T00:04:33;3.30;;;2.10;;
10637;SDS011;47007;49.252;8.904;2023-04-15T00:05:14;3.17;;;1.83;;
10637;SDS011;47007;49.252;8.904;2023-04-15T00:05:56;4.40;;;2.00;;
10637;SDS011;47007;49.252;8.904;2023-04-15T00:06:38;2.80;;;1.52;;
10637;SDS011;47007;49.252;8.904;2023-04-15T00:07:20;3.05;;;1.88;;
10637;SDS011;47007;49.252;8.904;2023-04-15T00:08:02;2.40;;;1.75;;
10637;SDS011;47007;49.252;8.904;2023-04-15T00:08:44;2.17;;;1.80;;
10637;SDS011;47007;49.252;8.904;2023-04-15T00:09:26;3.17;;;1.70;;
10637;SDS011;47007;49.252;8.904;2023-04-15T00:10:07;1.88;;;1.65;;
10637;SDS011;47007;49.252;8.904;2023-04-15T00:10:49;2.30;;;1.80;;
10637;SDS011;47007;49.252;8.904;2023-04-15T00:11:31;2.05;;;1.65;;
10637;SDS011;47007;49.252;8.904;2023-04-15T00:12:12;3.13;;;1.85;;
10637;SDS011;47007;49.252;8.904;2023-04-15T00:12:54;3.92;;;2.30;;
10637;SDS011;47007;49.252;8.904;2023-04-15T00:13:36;3.53;;;2.42;;
10637;SDS011;47007;49.252;8.904;2023-04-15T00:14:18;2.75;;;1.90;;
10637;SDS011;47007;49.252;8.904;2023-04-15T00:15:00;3.40;;;2.60;;
10637;SDS011;47007;49.252;8.904;2023-04-15T00:15:42;3.95;;;2.40;;
10637;SDS011;47007;49.252;8.904;2023-04-15T00:16:24;2.65;;;2.17;;
10637;SDS011;47007;49.252;8.904;2023-04-15T00:17:06;2.85;;;2.30;;
10637;SDS011;47007;49.252;8.904;2023-04-15T00:17:49;2.92;;;2.33;;
10637;SDS011;47007;49.252;8.904;2023-04-15T00:18:34;2.95;;;2.38;;
10637;SDS011;47007;49.252;8.904;2023-04-15T00:19:16;3.33;;;2.30;;
10637;SDS011;47007;49.252;8.904;2023-04-15T00:19:58;2.53;;;2.20;;
10637;SDS011;47007;49.252;8.904;2023-04-15T00:20:40;2.25;;;1.98;;
10637;SDS011;47007;49.252;8.904;2023-04-15T00:21:21;3.85;;;1.88;;
10637;SDS011;47007;49.252;8.904;2023-04-15T00:22:03;3.25;;;2.10;;
10637;SDS011;47007;49.252;8.904;2023-04-15T00:22:45;2.35;;;1.70;;
10637;SDS011;47007;49.252;8.904;2023-04-15T00:23:27;2.08;;;1.88;;
10637;SDS011;47007;49.252;8.904;2023-04-15T00:24:09;2.85;;;1.63;;
10637;SDS011;47007;49.252;8.904;2023-04-15T00:24:51;2.13;;;1.85;;
10637;SDS011;47007;49.252;8.904;2023-04-15T00:25:33;2.78;;;1.80;;
10637;SDS011;47007;49.252;8.904;2023-04-15T00:26:15;1.95;;;1.80;;
10637;SDS011;47007;49.252;8.904;2023-04-15T00:26:57;1.23;;;1.20;;
10637;SDS011;47007;49.252;8.904;2023-04-15T00:27:39;2.10;;;1.90;;
10637;SDS011;47007;49.252;8.904;2023-04-15T00:28:21;2.72;;;1.95;;
10637;SDS011;47007;49.252;8.904;2023-04-15T00:29:02;2.80;;;1.75;;
10637;SDS011;47007;49.252;8.904;2023-04-15T00:29:44;2.63;;;2.13;;
10637;SDS011;47007;49.252;8.904;2023-04-15T00:30:26;2.78;;;1.85;;
10637;SDS011;47007;49.252;8.904;2023-04-15T00:31:08;2.17;;;1.77;;
10637;SDS011;47007;49.252;8.904;2023-04-15T00:31:50;3.30;;;1.83;;
10637;SDS011;47007;49.252;8.904;2023-04-15T00:32:32;1.75;;;1.65;;
10637;SDS011;47007;49.252;8.904;2023-04-15T00:33:13;2.25;;;1.40;;
10637;SDS011;47007;49.252;8.904;2023-04-15T00:33:56;2.20;;;1.60;;
10637;SDS011;47007;49.252;8.904;2023-04-15T00:34:38;2.67;;;1.58;;
10637;SDS011;47007;49.252;8.904;2023-04-15T00:35:21;2.70;;;2.00;;
10637;SDS011;47007;49.252;8.904;2023-04-15T00:36:05;1.50;;;1.40;;
10637;SDS011;47007;49.252;8.904;2023-04-15T00:36:47;1.85;;;1.70;;
10637;SDS011;47007;49.252;8.904;2023-04-15T00:37:29;3.08;;;1.80;;
10637;SDS011;47007;49.252;8.904;2023-04-15T00:38:11;1.77;;;1.55;;
10637;SDS011;47007;49.252;8.904;2023-04-15T00:38:55;2.35;;;1.90;;
10637;SDS011;47007;49.252;8.904;2023-04-15T00:39:36;2.17;;;1.50;;
10637;SDS011;47007;49.252;8.904;2023-04-15T00:40:19;2.97;;;1.90;;
10637;SDS011;47007;49.252;8.904;2023-04-15T00:41:03;3.13;;;2.00;;
10637;SDS011;47007;49.252;8.904;2023-04-15T00:41:45;2.38;;;1.63;;
10637;SDS011;47007;49.252;8.904;2023-04-15T00:42:27;2.78;;;1.60;;
10637;SDS011;47007;49.252;8.904;2023-04-15T00:43:09;1.60;;;1.50;;
10637;SDS011;47007;49.252;8.904;2023-04-15T00:43:50;1.90;;;1.63;;
10637;SDS011;47007;49.252;8.904;2023-04-15T00:44:32;2.60;;;1.70;;
10637;SDS011;47007;49.252;8.904;2023-04-15T00:45:15;3.67;;;1.88;;
10637;SDS011;47007;49.252;8.904;2023-04-15T00:45:56;3.08;;;2.05;;
10637;SDS011;47007;49.252;8.904;2023-04-15T00:46:39;1.65;;;1.55;;
10637;SDS011;47007;49.252;8.904;2023-04-15T00:47:22;2.20;;;1.70;;
10637;SDS011;47007;49.252;8.904;2023-04-15T00:48:03;3.65;;;2.30;;
10637;SDS011;47007;49.252;8.904;2023-04-15T00:48:46;2.67;;;2.30;;
10637;SDS011;47007;49.252;8.904;2023-04-15T00:49:28;2.80;;;2.17;;
10637;SDS011;47007;49.252;8.904;2023-04-15T00:50:10;2.47;;;2.10;;
10637;SDS011;47007;49.252;8.904;2023-04-15T00:50:53;3.95;;;2.50;;
10637;SDS011;47007;49.252;8.904;2023-04-15T00:51:34;3.17;;;2.38;;
10637;SDS011;47007;49.252;8.904;2023-04-15T00:52:18;2.55;;;2.00;;
10637;SDS011;47007;49.252;8.904;2023-04-15T00:53:00;2.28;;;2.03;;
10637;SDS011;47007;49.252;8.904;2023-04-15T00:53:42;3.15;;;2.22;;
10637;SDS011;47007;49.252;8.904;2023-04-15T00:54:24;4.15;;;2.35;;
10637;SDS011;47007;49.252;8.904;2023-04-15T00:55:06;2.65;;;2.45;;
10637;SDS011;47007;49.252;8.904;2023-04-15T00:55:48;4.82;;;2.70;;
10637;SDS011;47007;49.252;8.904;2023-04-15T00:56:30;2.72;;;2.10;;
10637;SDS011;47007;49.252;8.904;2023-04-15T00:57:19;3.28;;;2.15;;
10637;SDS011;47007;49.252;8.904;2023-04-15T00:58:02;2.53;;;2.20;;
10637;SDS011;47007;49.252;8.904;2023-04-15T00:58:44;2.33;;;1.90;;
10637;SDS011;47007;49.252;8.904;2023-04-15T00:59:26;2.40;;;2.13;;
10637;SDS011;47007;49.252;8.904;2023-04-15T01:00:08;3.05;;;2.08;;
10637;SDS011;47007;49.252;8.904;2023-04-15T01:00:51;3.08;;;2.15;;
10637;SDS011;47007;49.252;8.904;2023-04-15T01:01:35;3.25;;;2.20;;
10637;SDS011;47007;49.252;8.904;2023-04-15T01:02:18;2.95;;;2.00;;
10637;SDS011;47007;49.252;8.904;2023-04-15T01:03:00;3.65;;;2.00;;
10637;SDS011;47007;49.252;8.904;2023-04-15T01:03:42;2.45;;;1.95;;
10637;SDS011;47007;49.252;8.904;2023-04-15T01:04:24;3.10;;;1.73;;
10637;SDS011;47007;49.252;8.904;2023-04-15T01:05:06;2.80;;;1.88;;
10637;SDS011;47007;49.252;8.904;2023-04-15T01:05:48;2.42;;;1.70;;
10637;SDS011;47007;49.252;8.904;2023-04-15T01:06:30;2.83;;;1.63;;
10637;SDS011;47007;49.252;8.904;2023-04-15T01:07:13;3.88;;;2.10;;
10637;SDS011;47007;49.252;8.904;2023-04-15T01:07:55;3.15;;;2.20;;
10637;SDS011;47007;49.252;8.904;2023-04-15T01:08:36;3.53;;;2.03;;
10637;SDS011;47007;49.252;8.904;2023-04-15T01:09:18;3.67;;;2.03;;
10637;SDS011;47007;49.252;8.904;2023-04-15T01:10:00;3.13;;;1.98;;
10637;SDS011;47007;49.252;8.904;2023-04-15T01:10:42;3.15;;;2.03;;
10637;SDS011;47007;49.252;8.904;2023-04-15T01:11:24;3.47;;;2.15;;
10637;SDS011;47007;49.252;8.904;2023-04-15T01:12:06;3.55;;;2.50;;
10637;SDS011;47007;49.252;8.904;2023-04-15T01:12:50;3.17;;;2.08;;
10637;SDS011;47007;49.252;8.904;2023-04-15T01:13:33;2.63;;;2.10;;
10637;SDS011;47007;49.252;8.904;2023-04-15T01:14:14;1.98;;;1.83;;
10637;SDS011;47007;49.252;8.904;2023-04-15T01:14:56;3.53;;;1.98;;
10637;SDS011;47007;49.252;8.904;2023-04-15T01:15:39;3.22;;;1.90;;
10637;SDS011;47007;49.252;8.904;2023-04-15T01:16:21;1.50;;;1.40;;
10637;SDS011;47007;49.252;8.904;2023-04-15T01:17:03;2.67;;;1.88;;
10637;SDS011;47007;49.252;8.904;2023-04-15T01:17:46;3.03;;;1.48;;
10637;SDS011;47007;49.252;8.904;2023-04-15T01:18:29;1.92;;;1.83;;
10637;SDS011;47007;49.252;8.904;2023-04-15T01:19:13;2.28;;;1.33;;
10637;SDS011;47007;49.252;8.904;2023-04-15T01:19:58;2.97;;;2.03;;
10637;SDS011;47007;49.252;8.904;2023-04-15T01:20:39;2.20;;;1.83;;
10637;SDS011;47007;49.252;8.904;2023-04-15T01:21:22;2.15;;;1.90;;
10637;SDS011;47007;49.252;8.904;2023-04-15T01:22:03;2.22;;;1.73;;
10637;SDS011;47007;49.252;8.904;2023-04-15T01:22:45;3.65;;;1.88;;
10637;SDS011;47007;49.252;8.904;2023-04-15T01:23:28;2.38;;;1.88;;
10637;SDS011;47007;49.252;8.904;2023-04-15T01:24:10;3.60;;;1.77;;
10637;SDS011;47007;49.252;8.904;2023-04-15T01:26:12;2.30;;;2.20;;
10637;SDS011;47007;49.252;8.904;2023-04-15T01:26:54;2.03;;;1.92;;
10637;SDS011;47007;49.252;8.904;2023-04-15T01:27:40;2.75;;;1.92;;
10637;SDS011;47007;49.252;8.904;2023-04-15T01:28:23;2.92;;;2.03;;
10637;SDS011;47007;49.252;8.904;2023-04-15T01:29:05;2.95;;;1.70;;
10637;SDS011;47007;49.252;8.904;2023-04-15T01:29:47;1.98;;;1.80;;
10637;SDS011;47007;49.252;8.904;2023-04-15T01:30:32;3.35;;;1.95;;
10637;SDS011;47007;49.252;8.904;2023-04-15T01:31:14;3.47;;;2.50;;
10637;SDS011;47007;49.252;8.904;2023-04-15T01:31:57;2.20;;;2.00;;
10637;SDS011;47007;49.252;8.904;2023-04-15T01:32:58;3.00;;;2.13;;
10637;SDS011;47007;49.252;8.904;2023-04-15T01:33:58;2.22;;;1.83;;
10637;SDS011;47007;49.252;8.904;2023-04-15T01:34:59;3.17;;;2.40;;
10637;SDS011;47007;49.252;8.904;2023-04-15T01:36:00;2.17;;;2.08;;
10637;SDS011;47007;49.252;8.904;2023-04-15T01:36:41;2.67;;;2.00;;
10637;SDS011;47007;49.252;8.904;2023-04-15T01:37:23;2.40;;;1.77;;
10637;SDS011;47007;49.252;8.904;2023-04-15T01:38:07;2.40;;;2.17;;
10637;SDS011;47007;49.252;8.904;2023-04-15T01:38:51;3.33;;;2.00;;
10637;SDS011;47007;49.252;8.904;2023-04-15T01:39:35;4.53;;;2.08;;
10637;SDS011;47007;49.252;8.904;2023-04-15T01:40:17;2.25;;;2.05;;
10637;SDS011;47007;49.252;8.904;2023-04-15T01:41:00;2.17;;;2.00;;
10637;SDS011;47007;49.252;8.904;2023-04-15T01:41:43;3.60;;;2.50;;
10637;SDS011;47007;49.252;8.904;2023-04-15T01:42:26;3.83;;;2.58;;
10637;SDS011;47007;49.252;8.904;2023-04-15T01:43:09;6.45;;;2.63;;
10637;SDS011;47007;49.252;8.904;2023-04-15T01:43:52;4.43;;;2.30;;
10637;SDS011;47007;49.252;8.904;2023-04-15T01:44:35;3.67;;;2.83;;
10637;SDS011;47007;49.252;8.904;2023-04-15T01:45:18;3.67;;;3.03;;
10637;SDS011;47007;49.252;8.904;2023-04-15T01:46:01;3.63;;;2.75;;
10637;SDS011;47007;49.252;8.904;2023-04-15T01:46:46;3.70;;;3.13;;
10637;SDS011;47007;49.252;8.904;2023-04-15T01:47:29;3.38;;;2.90;;
10637;SDS011;47007;49.252;8.904;2023-04-15T01:48:12;3.70;;;2.50;;
10637;SDS011;47007;49.252;8.904;2023-04-15T01:48:55;3.10;;;2.58;;
10637;SDS011;47007;49.252;8.904;2023-04-15T01:49:40;2.78;;;2.58;;
10637;SDS011;47007;49.252;8.904;2023-04-15T01:50:23;2.88;;;2.67;;
10637;SDS011;47007;49.252;8.904;2023-04-15T01:51:06;2.97;;;2.42;;
10637;SDS011;47007;49.252;8.904;2023-04-15T01:51:49;3.00;;;2.50;;
10637;SDS011;47007;49.252;8.904;2023-04-15T01:52:32;4.60;;;2.65;;
10637;SDS011;47007;49.252;8.904;2023-04-15T01:53:15;3.45;;;2.35;;
10637;SDS011;47007;49.252;8.904;2023-04-15T01:53:58;2.40;;;2.20;;
10637;SDS011;47007;49.252;8.904;2023-04-15T01:54:41;2.13;;;1.98;;
10637;SDS011;47007;49.252;8.904;2023-04-15T01:55:24;3.28;;;2.22;;
10637;SDS011;47007;49.252;8.904;2023-04-15T01:56:07;2.70;;;1.92;;
10637;SDS011;47007;49.252;8.904;2023-04-15T01:56:50;3.03;;;2.20;;
10637;SDS011;47007;49.252;8.904;2023-04-15T01:57:33;4.82;;;2.40;;
10637;SDS011;47007;49.252;8.904;2023-04-15T01:58:17;2.15;;;1.90;;
10637;SDS011;47007;49.252;8.904;2023-04-15T01:59:00;5.00;;;2.10;;
10637;SDS011;47007;49.252;8.904;2023-04-15T01:59:43;2.30;;;1.73;;
10637;SDS011;47007;49.252;8.904;2023-04-15T02:00:26;2.05;;;1.85;;
10637;SDS011;47007;49.252;8.904;2023-04-15T02:01:09;3.20;;;2.08;;
10637;SDS011;47007;49.252;8.904;2023-04-15T02:01:53;2.20;;;1.90;;
10637;SDS011;47007;49.252;8.904;2023-04-15T02:02:36;2.33;;;1.83;;
10637;SDS011;47007;49.252;8.904;2023-04-15T02:03:19;3.25;;;2.05;;
10637;SDS011;47007;49.252;8.904;2023-04-15T02:04:02;2.40;;;2.20;;
10637;SDS011;47007;49.252;8.904;2023-04-15T02:04:46;2.70;;;2.47;;
10637;SDS011;47007;49.252;8.904;2023-04-15T02:05:31;3.80;;;2.65;;
10637;SDS011;47007;49.252;8.904;2023-04-15T02:06:14;3.47;;;2.33;;
10637;SDS011;47007;49.252;8.904;2023-04-15T02:06:57;2.45;;;2.13;;
10637;SDS011;47007;49.252;8.904;2023-04-15T02:07:41;3.20;;;2.80;;
10637;SDS011;47007;49.252;8.904;2023-04-15T02:08:24;3.28;;;2.75;;
10637;SDS011;47007;49.252;8.904;2023-04-15T02:09:08;3.92;;;2.92;;
10637;SDS011;47007;49.252;8.904;2023-04-15T02:09:52;4.53;;;2.67;;
10637;SDS011;47007;49.252;8.904;2023-04-15T02:10:35;4.13;;;3.15;;
10637;SDS011;47007;49.252;8.904;2023-04-15T02:11:20;4.47;;;2.95;;
10637;SDS011;47007;49.252;8.904;2023-04-15T02:12:03;5.90;;;3.03;;
10637;SDS011;47007;49.252;8.904;2023-04-15T02:12:46;5.15;;;3.33;;
10637;SDS011;47007;49.252;8.904;2023-04-15T02:13:29;3.85;;;2.72;;
10637;SDS011;47007;49.252;8.904;2023-04-15T02:14:12;3.72;;;2.97;;
10637;SDS011;47007;49.252;8.904;2023-04-15T02:14:54;3.28;;;2.85;;
10637;SDS011;47007;49.252;8.904;2023-04-15T02:15:38;2.60;;;2.40;;
10637;SDS011;47007;49.252;8.904;2023-04-15T02:16:21;3.25;;;2.92;;
10637;SDS011;47007;49.252;8.904;2023-04-15T02:17:04;2.95;;;2.65;;
10637;SDS011;47007;49.252;8.904;2023-04-15T02:17:50;3.80;;;2.88;;
10637;SDS011;47007;49.252;8.904;2023-04-15T02:18:34;3.17;;;2.30;;
10637;SDS011;47007;49.252;8.904;2023-04-15T02:19:19;3.38;;;2.40;;
10637;SDS011;47007;49.252;8.904;2023-04-15T02:20:02;2.60;;;2.40;;
10637;SDS011;47007;49.252;8.904;2023-04-15T02:20:50;3.40;;;2.58;;
10637;SDS011;47007;49.252;8.904;2023-04-15T02:21:34;3.10;;;2.50;;
10637;SDS011;47007;49.252;8.904;2023-04-15T02:22:16;3.92;;;2.83;;
10637;SDS011;47007;49.252;8.904;2023-04-15T02:23:01;2.65;;;2.38;;
10637;SDS011;47007;49.252;8.904;2023-04-15T02:23:44;2.53;;;2.30;;
10637;SDS011;47007;49.252;8.904;2023-04-15T02:24:29;4.10;;;2.30;;
10637;SDS011;47007;49.252;8.904;2023-04-15T02:25:13;3.35;;;2.97;;
10637;SDS011;47007;49.252;8.904;2023-04-15T02:25:56;2.92;;;2.63;;
10637;SDS011;47007;49.252;8.904;2023-04-15T02:26:39;3.00;;;2.53;;
10637;SDS011;47007;49.252;8.904;2023-04-15T02:27:22;2.90;;;2.35;;
10637;SDS011;47007;49.252;8.904;2023-04-15T02:28:05;4.03;;;2.40;;
10637;SDS011;47007;49.252;8.904;2023-04-15T02:28:48;3.30;;;2.50;;
10637;SDS011;47007;49.252;8.904;2023-04-15T02:29:32;2.40;;;2.17;;
10637;SDS011;47007;49.252;8.904;2023-04-15T02:30:15;3.10;;;2.65;;
10637;SDS011;47007;49.252;8.904;2023-04-15T02:30:58;3.30;;;2.47;;
10637;SDS011;47007;49.252;8.904;2023-04-15T02:31:45;2.75;;;2.28;;
10637;SDS011;47007;49.252;8.904;2023-04-15T02:32:29;2.55;;;2.35;;
10637;SDS011;47007;49.252;8.904;2023-04-15T02:33:12;3.47;;;2.55;;
10637;SDS011;47007;49.252;8.904;2023-04-15T02:33:55;3.10;;;2.80;;
10637;SDS011;47007;49.252;8.904;2023-04-15T02:34:39;3.70;;;2.55;;
10637;SDS011;47007;49.252;8.904;2023-04-15T02:35:23;4.03;;;2.92;;
10637;SDS011;47007;49.252;8.904;2023-04-15T02:36:07;3.58;;;2.75;;
10637;SDS011;47007;49.252;8.904;2023-04-15T02:36:51;3.05;;;2.42;;
10637;SDS011;47007;49.252;8.904;2023-04-15T02:37:39;3.03;;;2.42;;
10637;SDS011;47007;49.252;8.904;2023-04-15T02:38:28;2.70;;;2.42;;
10637;SDS011;47007;49.252;8.904;2023-04-15T02:39:11;3.03;;;2.72;;
10637;SDS011;47007;49.252;8.904;2023-04-15T02:39:56;3.33;;;2.60;;
10637;SDS011;47007;49.252;8.904;2023-04-15T02:40:39;3.50;;;2.75;;
10637;SDS011;47007;49.252;8.904;2023-04-15T02:41:22;4.05;;;3.30;;
10637;SDS011;47007;49.252;8.904;2023-04-15T02:42:08;6.47;;;3.92;;
10637;SDS011;47007;49.252;8.904;2023-04-15T02:42:51;4.22;;;3.78;;
10637;SDS011;47007;49.252;8.904;2023-04-15T02:43:34;3.88;;;3.20;;
10637;SDS011;47007;49.252;8.904;2023-04-15T02:44:17;3.17;;;2.88;;
10637;SDS011;47007;49.252;8.904;2023-04-15T02:45:04;5.20;;;4.10;;
10637;SDS011;47007;49.252;8.904;2023-04-15T02:45:49;3.90;;;3.30;;
10637;SDS011;47007;49.252;8.904;2023-04-15T02:46:32;4.85;;;3.35;;
10637;SDS011;47007;49.252;8.904;2023-04-15T02:47:15;3.80;;;3.50;;
10637;SDS011;47007;49.252;8.904;2023-04-15T02:47:58;3.40;;;3.10;;
10637;SDS011;47007;49.252;8.904;2023-04-15T02:48:42;3.30;;;3.03;;
10637;SDS011;47007;49.252;8.904;2023-04-15T02:49:25;3.20;;;2.90;;
10637;SDS011;47007;49.252;8.904;2023-04-15T02:50:11;4.38;;;2.70;;
10637;SDS011;47007;49.252;8.904;2023-04-15T02:52:14;3.33;;;2.78;;
10637;SDS011;47007;49.252;8.904;2023-04-15T02:52:57;2.97;;;2.50;;
10637;SDS011;47007;49.252;8.904;2023-04-15T02:53:40;3.22;;;2.92;;
10637;SDS011;47007;49.252;8.904;2023-04-15T02:54:23;3.22;;;2.83;;
10637;SDS011;47007;49.252;8.904;2023-04-15T02:55:06;3.45;;;3.15;;
10637;SDS011;47007;49.252;8.904;2023-04-15T02:55:52;3.70;;;2.83;;
10637;SDS011;47007;49.252;8.904;2023-04-15T02:56:35;2.63;;;2.35;;
10637;SDS011;47007;49.252;8.904;2023-04-15T02:57:18;3.05;;;2.75;;
10637;SDS011;47007;49.252;8.904;2023-04-15T02:58:00;5.82;;;3.05;;
10637;SDS011;47007;49.252;8.904;2023-04-15T02:58:44;4.07;;;2.97;;
10637;SDS011;47007;49.252;8.904;2023-04-15T02:59:27;3.40;;;2.50;;
10637;SDS011;47007;49.252;8.904;2023-04-15T03:00:11;3.72;;;3.20;;
10637;SDS011;47007;49.252;8.904;2023-04-15T03:00:57;4.47;;;3.78;;
10637;SDS011;47007;49.252;8.904;2023-04-15T03:01:40;5.25;;;3.45;;
10637;SDS011;47007;49.252;8.904;2023-04-15T03:02:23;4.18;;;3.28;;
10637;SDS011;47007;49.252;8.904;2023-04-15T03:03:07;5.03;;;3.00;;
10637;SDS011;47007;49.252;8.904;2023-04-15T03:03:50;3.65;;;3.20;;
10637;SDS011;47007;49.252;8.904;2023-04-15T03:04:33;4.05;;;3.22;;
10637;SDS011;47007;49.252;8.904;2023-04-15T03:05:16;7.43;;;4.40;;
10637;SDS011;47007;49.252;8.904;2023-04-15T03:06:05;7.18;;;4.63;;
10637;SDS011;47007;49.252;8.904;2023-04-15T03:06:48;6.13;;;4.25;;
10637;SDS011;47007;49.252;8.904;2023-04-15T03:07:31;7.20;;;4.70;;
10637;SDS011;47007;49.252;8.904;2023-04-15T03:08:15;6.35;;;4.18;;
10637;SDS011;47007;49.252;8.904;2023-04-15T03:08:58;7.70;;;4.70;;
10637;SDS011;47007;49.252;8.904;2023-04-15T03:09:44;8.20;;;4.88;;
10637;SDS011;47007;49.252;8.904;2023-04-15T03:10:29;7.40;;;4.70;;
10637;SDS011;47007;49.252;8.904;2023-04-15T03:11:13;11.43;;;5.30;;
10637;SDS011;47007;49.252;8.904;2023-04-15T03:11:56;7.47;;;4.18;;
10637;SDS011;47007;49.252;8.904;2023-04-15T03:12:39;5.47;;;3.70;;
10637;SDS011;47007;49.252;8.904;2023-04-15T03:13:25;3.58;;;3.10;;
10637;SDS011;47007;49.252;8.904;2023-04-15T03:14:08;5.63;;;3.20;;
10637;SDS011;47007;49.252;8.904;2023-04-15T03:14:55;5.30;;;3.80;;
10637;SDS011;47007;49.252;8.904;2023-04-15T03:15:45;6.05;;;3.88;;
10637;SDS011;47007;49.252;8.904;2023-04-15T03:16:29;4.45;;;3.47;;
10637;SDS011;47007;49.252;8.904;2023-04-15T03:17:13;5.47;;;3.65;;
10637;SDS011;47007;49.252;8.904;2023-04-15T03:17:57;4.65;;;3.72;;
10637;SDS011;47007;49.252;8.904;2023-04-15T03:18:40;7.32;;;4.45;;
10637;SDS011;47007;49.252;8.904;2023-04-15T03:19:23;4.75;;;3.97;;
10637;SDS011;47007;49.252;8.904;2023-04-15T03:20:07;6.10;;;4.40;;
10637;SDS011;47007;49.252;8.904;2023-04-15T03:20:50;6.90;;;3.83;;
10637;SDS011;47007;49.252;8.904;2023-04-15T03:21:33;6.47;;;3.78;;
10637;SDS011;47007;49.252;8.904;2023-04-15T03:22:16;4.57;;;3.97;;
10637;SDS011;47007;49.252;8.904;2023-04-15T03:22:59;4.65;;;3.65;;
10637;SDS011;47007;49.252;8.904;2023-04-15T03:23:43;5.07;;;3.60;;
10637;SDS011;47007;49.252;8.904;2023-04-15T03:24:26;5.80;;;3.85;;
10637;SDS011;47007;49.252;8.904;2023-04-15T03:25:12;4.47;;;3.45;;
10637;SDS011;47007;49.252;8.904;2023-04-15T03:25:54;4.00;;;3.33;;
10637;SDS011;47007;49.252;8.904;2023-04-15T03:26:39;5.40;;;3.10;;
10637;SDS011;47007;49.252;8.904;2023-04-15T03:27:29;4.78;;;3.40;;
10637;SDS011;47007;49.252;8.904;2023-04-15T03:28:15;4.22;;;3.15;;
10637;SDS011;47007;49.252;8.904;2023-04-15T03:28:58;3.28;;;2.90;;
10637;SDS011;47007;49.252;8.904;2023-04-15T03:29:41;3.80;;;3.47;;
10637;SDS011;47007;49.252;8.904;2023-04-15T03:30:24;4.25;;;3.38;;
10637;SDS011;47007;49.252;8.904;2023-04-15T03:31:07;3.85;;;3.08;;
10637;SDS011;47007;49.252;8.904;2023-04-15T03:31:50;3.63;;;3.15;;
10637;SDS011;47007;49.252;8.904;2023-04-15T03:32:33;3.05;;;2.58;;
10637;SDS011;47007;49.252;8.904;2023-04-15T03:33:17;4.70;;;3.25;;
10637;SDS011;47007;49.252;8.904;2023-04-15T03:34:00;4.88;;;3.38;;
10637;SDS011;47007;49.252;8.904;2023-04-15T03:34:43;4.18;;;3.05;;
10637;SDS011;47007;49.252;8.904;2023-04-15T03:35:26;4.30;;;3.00;;
10637;SDS011;47007;49.252;8.904;2023-04-15T03:36:08;3.30;;;2.90;;
10637;SDS011;47007;49.252;8.904;2023-04-15T03:36:51;3.47;;;2.75;;
10637;SDS011;47007;49.252;8.904;2023-04-15T03:37:34;4.20;;;3.13;;
10637;SDS011;47007;49.252;8.904;2023-04-15T03:38:17;3.45;;;3.00;;
10637;SDS011;47007;49.252;8.904;2023-04-15T03:39:00;4.07;;;2.90;;
10637;SDS011;47007;49.252;8.904;2023-04-15T03:39:46;3.53;;;3.00;;
10637;SDS011;47007;49.252;8.904;2023-04-15T03:40:28;3.55;;;2.65;;
10637;SDS011;47007;49.252;8.904;2023-04-15T03:41:11;3.65;;;2.75;;
10637;SDS011;47007;49.252;8.904;2023-04-15T03:41:54;3.25;;;2.95;;
10637;SDS011;47007;49.252;8.904;2023-04-15T03:42:38;3.30;;;2.72;;
10637;SDS011;47007;49.252;8.904;2023-04-15T03:43:20;3.17;;;2.40;;
10637;SDS011;47007;49.252;8.904;2023-04-15T03:44:03;2.80;;;2.38;;
10637;SDS011;47007;49.252;8.904;2023-04-15T03:44:47;3.15;;;2.53;;
10637;SDS011;47007;49.252;8.904;2023-04-15T03:45:30;4.07;;;2.83;;
10637;SDS011;47007;49.252;8.904;2023-04-15T03:46:12;3.28;;;3.00;;
10637;SDS011;47007;49.252;8.904;2023-04-15T03:46:56;4.35;;;3.60;;
10637;SDS011;47007;49.252;8.904;2023-04-15T03:47:38;4.43;;;4.03;;
10637;SDS011;47007;49.252;8.904;2023-04-15T03:48:21;4.28;;;3.80;;
10637;SDS011;47007;49.252;8.904;2023-04-15T03:49:05;5.70;;;4.10;;
10637;SDS011;47007;49.252;8.904;2023-04-15T03:49:48;4.63;;;4.10;;
10637;SDS011;47007;49.252;8.904;2023-04-15T03:50:31;5.00;;;4.50;;
10637;SDS011;47007;49.252;8.904;2023-04-15T03:51:14;5.30;;;3.58;;
10637;SDS011;47007;49.252;8.904;2023-04-15T03:51:57;4.53;;;2.80;;
10637;SDS011;47007;49.252;8.904;2023-04-15T03:52:41;3.88;;;3.03;;
10637;SDS011;47007;49.252;8.904;2023-04-15T03:53:23;3.10;;;2.72;;
10637;SDS011;47007;49.252;8.904;2023-04-15T03:54:06;3.08;;;2.33;;
10637;SDS011;47007;49.252;8.904;2023-04-15T03:54:49;2.72;;;2.53;;
10637;SDS011;47007;49.252;8.904;2023-04-15T03:55:32;3.10;;;2.70;;
10637;SDS011;47007;49.252;8.904;2023-04-15T03:56:15;2.80;;;2.50;;
10637;SDS011;47007;49.252;8.904;2023-04-15T03:56:58;5.00;;;3.17;;
10637;SDS011;47007;49.252;8.904;2023-04-15T03:57:41;3.85;;;3.08;;
10637;SDS011;47007;49.252;8.904;2023-04-15T03:58:24;3.58;;;3.22;;
10637;SDS011;47007;49.252;8.904;2023-04-15T03:59:07;3.72;;;3.30;;
10637;SDS011;47007;49.252;8.904;2023-04-15T03:59:50;3.50;;;3.20;;
10637;SDS011;47007;49.252;8.904;2023-04-15T04:00:33;3.40;;;3.05;;
10637;SDS011;47007;49.252;8.904;2023-04-15T04:01:16;3.33;;;2.92;;
10637;SDS011;47007;49.252;8.904;2023-04-15T04:01:58;6.30;;;4.40;;
10637;SDS011;47007;49.252;8.904;2023-04-15T04:02:42;6.80;;;6.05;;
10637;SDS011;47007;49.252;8.904;2023-04-15T04:03:27;5.55;;;4.97;;
10637;SDS011;47007;49.252;8.904;2023-04-15T04:04:10;6.80;;;5.70;;
10637;SDS011;47007;49.252;8.904;2023-04-15T04:04:54;6.00;;;5.40;;
10637;SDS011;47007;49.252;8.904;2023-04-15T04:05:36;5.22;;;4.72;;
10637;SDS011;47007;49.252;8.904;2023-04-15T04:06:20;5.78;;;4.70;;
10637;SDS011;47007;49.252;8.904;2023-04-15T04:07:03;4.70;;;4.00;;
10637;SDS011;47007;49.252;8.904;2023-04-15T04:07:46;4.15;;;3.72;;
10637;SDS011;47007;49.252;8.904;2023-04-15T04:08:29;3.45;;;3.15;;
10637;SDS011;47007;49.252;8.904;2023-04-15T04:09:12;3.53;;;3.22;;
10637;SDS011;47007;49.252;8.904;2023-04-15T04:09:56;5.47;;;3.40;;
10637;SDS011;47007;49.252;8.904;2023-04-15T04:10:39;4.75;;;3.63;;
10637;SDS011;47007;49.252;8.904;2023-04-15T04:11:22;6.20;;;4.70;;
10637;SDS011;47007;49.252;8.904;2023-04-15T04:12:05;9.63;;;8.35;;
10637;SDS011;47007;49.252;8.904;2023-04-15T04:12:47;14.07;;;10.98;;
10637;SDS011;47007;49.252;8.904;2023-04-15T04:13:30;14.13;;;11.45;;
10637;SDS011;47007;49.252;8.904;2023-04-15T04:14:13;10.48;;;8.00;;
10637;SDS011;47007;49.252;8.904;2023-04-15T04:14:56;7.05;;;6.35;;
10637;SDS011;47007;49.252;8.904;2023-04-15T04:15:39;5.47;;;4.90;;
10637;SDS011;47007;49.252;8.904;2023-04-15T04:16:22;5.22;;;4.07;;
10637;SDS011;47007;49.252;8.904;2023-04-15T04:17:05;4.45;;;4.05;;
10637;SDS011;47007;49.252;8.904;2023-04-15T04:17:48;5.50;;;3.78;;
10637;SDS011;47007;49.252;8.904;2023-04-15T04:18:31;4.03;;;3.63;;
10637;SDS011;47007;49.252;8.904;2023-04-15T04:19:15;4.65;;;3.58;;
10637;SDS011;47007;49.252;8.904;2023-04-15T04:20:01;3.92;;;3.40;;
10637;SDS011;47007;49.252;8.904;2023-04-15T04:20:43;3.65;;;3.33;;
10637;SDS011;47007;49.252;8.904;2023-04-15T04:21:26;4.60;;;3.80;;
10637;SDS011;47007;49.252;8.904;2023-04-15T04:22:09;3.65;;;3.22;;
10637;SDS011;47007;49.252;8.904;2023-04-15T04:22:52;3.50;;;3.20;;
10637;SDS011;47007;49.252;8.904;2023-04-15T04:23:35;5.15;;;3.20;;